createdAt,value
2022-09-06T00:02:19.822Z,2.00
2022-09-06T00:04:46.585Z,1.50
2022-09-06T00:07:13.284Z,2.10
2022-09-06T00:09:40.031Z,1.87
2022-09-06T00:12:06.955Z,1.20
2022-09-06T00:14:33.645Z,2.10
2022-09-06T00:17:00.885Z,1.87
2022-09-06T00:19:27.835Z,1.83
2022-09-06T00:21:54.547Z,1.70
2022-09-06T00:24:21.299Z,1.60
2022-09-06T00:26:48.052Z,1.60
2022-09-06T00:29:14.823Z,1.67
2022-09-06T00:31:41.595Z,1.90
2022-09-06T00:34:08.603Z,1.70
2022-09-06T00:36:35.408Z,1.50
2022-09-06T00:39:02.588Z,1.67
2022-09-06T00:41:29.392Z,2.07
2022-09-06T00:43:56.387Z,2.07
2022-09-06T00:46:28.849Z,1.90
2022-09-06T00:49:09.198Z,1.60
2022-09-06T00:51:36.546Z,1.50
2022-09-06T00:54:09.009Z,2.10
2022-09-06T00:56:40.664Z,2.23
2022-09-06T00:59:07.974Z,2.17
2022-09-06T01:01:34.802Z,2.83
2022-09-06T01:04:02.523Z,2.60
2022-09-06T01:06:42.579Z,2.50
2022-09-06T01:09:40.010Z,3.80
2022-09-06T01:12:24.134Z,2.93
2022-09-06T01:15:27.888Z,2.57
2022-09-06T01:18:01.202Z,2.80
2022-09-06T01:20:51.925Z,3.47
2022-09-06T01:23:28.707Z,2.40
2022-09-06T01:26:21.278Z,2.90
2022-09-06T01:28:49.185Z,2.90
2022-09-06T01:31:35.288Z,3.07
2022-09-06T01:34:34.718Z,2.80
2022-09-06T01:37:10.245Z,3.40
2022-09-06T01:39:39.906Z,3.37
2022-09-06T01:42:19.194Z,3.20
2022-09-06T01:44:51.833Z,3.80
2022-09-06T01:47:32.621Z,3.00
2022-09-06T01:50:37.164Z,3.30
2022-09-06T01:53:25.713Z,2.93
2022-09-06T01:56:07.433Z,3.60
2022-09-06T01:59:05.567Z,2.80
2022-09-06T02:01:40.098Z,3.20
2022-09-06T02:04:17.126Z,3.60
2022-09-06T02:06:50.526Z,3.53
2022-09-06T02:09:21.844Z,3.57
2022-09-06T02:11:58.511Z,4.57
2022-09-06T02:14:59.929Z,4.27
2022-09-06T02:17:32.310Z,5.00
2022-09-06T02:20:12.999Z,4.83
2022-09-06T02:22:43.667Z,4.47
2022-09-06T02:25:15.512Z,4.60
2022-09-06T02:27:42.355Z,4.67
2022-09-06T02:30:09.614Z,3.80
2022-09-06T02:32:44.374Z,5.30
2022-09-06T02:35:15.806Z,5.00
2022-09-06T02:37:43.530Z,5.07
2022-09-06T02:40:10.810Z,4.80
2022-09-06T02:42:38.087Z,5.27
2022-09-06T02:45:05.207Z,5.50
2022-09-06T02:47:32.018Z,5.33
2022-09-06T02:49:58.738Z,5.30
2022-09-06T02:52:25.437Z,5.13
2022-09-06T02:54:52.216Z,5.00
2022-09-06T02:57:19.163Z,5.47
2022-09-06T02:59:46.241Z,5.30
2022-09-06T03:02:13.053Z,4.90
2022-09-06T03:04:39.790Z,4.37
2022-09-06T03:07:06.635Z,5.40
2022-09-06T03:09:33.354Z,5.50
2022-09-06T03:12:00.093Z,4.97
2022-09-06T03:14:26.768Z,5.20
2022-09-06T03:16:53.608Z,4.73
2022-09-06T03:19:21.564Z,5.23
2022-09-06T03:21:48.315Z,5.07
2022-09-06T03:24:14.995Z,5.20
2022-09-06T03:26:41.675Z,5.63
2022-09-06T03:29:08.347Z,5.27
2022-09-06T03:31:35.030Z,5.87
2022-09-06T03:34:01.723Z,5.60
2022-09-06T03:36:29.585Z,6.37
2022-09-06T03:38:56.335Z,5.60
2022-09-06T03:41:23.088Z,5.23
2022-09-06T03:43:49.763Z,5.40
2022-09-06T03:46:16.470Z,5.63
2022-09-06T03:48:43.272Z,5.20
2022-09-06T03:51:09.978Z,5.90
2022-09-06T03:53:36.763Z,4.67
2022-09-06T03:56:03.629Z,5.10
2022-09-06T03:58:31.768Z,4.17
2022-09-06T04:01:07.530Z,4.50
2022-09-06T04:03:35.518Z,4.30
2022-09-06T04:06:02.741Z,5.33
2022-09-06T04:08:29.958Z,4.60
2022-09-06T04:10:58.502Z,4.37
2022-09-06T04:13:27.114Z,4.83
2022-09-06T04:15:54.286Z,4.50
2022-09-06T04:18:21.787Z,5.00
2022-09-06T04:20:49.976Z,4.80
2022-09-06T04:23:17.523Z,4.20
2022-09-06T04:25:48.693Z,4.50
2022-09-06T04:28:16.233Z,4.60
2022-09-06T04:30:42.945Z,4.30
2022-09-06T04:33:09.681Z,4.30
2022-09-06T04:35:36.721Z,4.20
2022-09-06T04:38:04.651Z,3.70
2022-09-06T04:40:31.414Z,4.37
2022-09-06T04:42:58.155Z,4.23
2022-09-06T04:45:25.008Z,4.17
2022-09-06T04:47:52.943Z,3.67
2022-09-06T04:50:19.812Z,4.77
2022-09-06T04:52:48.200Z,3.87
2022-09-06T04:55:15.284Z,3.80
2022-09-06T04:57:45.796Z,4.27
2022-09-06T05:00:14.521Z,4.60
2022-09-06T05:02:41.450Z,3.77
2022-09-06T05:05:08.506Z,4.13
2022-09-06T05:07:35.252Z,4.00
2022-09-06T05:10:01.934Z,4.20
2022-09-06T05:12:28.671Z,4.37
2022-09-06T05:14:55.392Z,3.80
2022-09-06T05:17:22.114Z,3.90
2022-09-06T05:19:48.996Z,3.70
2022-09-06T05:22:15.685Z,4.33
2022-09-06T05:24:42.440Z,3.70
2022-09-06T05:27:09.389Z,4.70
2022-09-06T05:29:36.234Z,4.30
2022-09-06T05:32:03.168Z,3.80
2022-09-06T05:34:29.941Z,4.27
2022-09-06T05:36:56.665Z,3.80
2022-09-06T05:39:23.819Z,3.83
2022-09-06T05:41:50.548Z,3.00
2022-09-06T05:44:17.274Z,4.10
2022-09-06T05:46:47.144Z,3.77
2022-09-06T05:49:13.977Z,3.87
2022-09-06T05:51:41.142Z,3.70
2022-09-06T05:54:10.749Z,3.73
2022-09-06T05:56:37.736Z,3.97
2022-09-06T05:59:05.861Z,4.00
2022-09-06T06:01:32.891Z,3.63
2022-09-06T06:04:02.194Z,3.40
2022-09-06T06:06:31.644Z,3.53
2022-09-06T06:08:59.188Z,4.00
2022-09-06T06:11:26.785Z,3.93
2022-09-06T06:13:54.108Z,3.93
2022-09-06T06:16:22.883Z,2.93
2022-09-06T06:18:52.240Z,3.60
2022-09-06T06:21:19.163Z,3.03
2022-09-06T06:23:47.717Z,3.27
2022-09-06T06:26:14.546Z,2.93
2022-09-06T06:28:41.519Z,3.23
2022-09-06T06:31:10.623Z,2.93
2022-09-06T06:33:37.832Z,2.80
2022-09-06T06:36:26.499Z,2.50
2022-09-06T06:38:55.097Z,3.27
2022-09-06T06:41:24.301Z,2.80
2022-09-06T06:43:56.418Z,3.00
2022-09-06T06:46:25.946Z,2.67
2022-09-06T06:48:55.244Z,2.90
2022-09-06T06:51:24.794Z,2.97
2022-09-06T06:53:51.798Z,2.73
2022-09-06T06:56:29.297Z,2.57
2022-09-06T06:58:59.657Z,2.93
2022-09-06T07:01:28.861Z,2.70
2022-09-06T07:03:55.900Z,2.67
2022-09-06T07:09:10.597Z,2.50
2022-09-06T07:11:37.244Z,2.13
2022-09-06T07:14:04.162Z,2.63
2022-09-06T07:16:31.362Z,2.47
2022-09-06T07:18:58.139Z,2.40
2022-09-06T07:26:38.462Z,1.73
2022-09-06T07:29:06.780Z,2.30
2022-09-06T07:34:21.916Z,2.20
2022-09-06T07:36:48.692Z,1.70
2022-09-06T07:39:15.544Z,2.30
2022-09-06T07:41:43.045Z,1.70
2022-09-06T07:44:10.080Z,1.80
2022-09-06T07:46:37.345Z,1.87
2022-09-06T07:49:05.838Z,1.83
2022-09-06T07:51:33.298Z,1.60
2022-09-06T07:54:28.871Z,2.00
2022-09-06T07:56:46.850Z,1.80
2022-09-06T07:59:13.618Z,1.47
2022-09-06T08:01:41.196Z,1.63
2022-09-06T08:04:10.256Z,1.80
2022-09-06T08:09:26.440Z,2.60
2022-09-06T08:11:53.277Z,1.40
2022-09-06T08:14:20.270Z,1.33
2022-09-06T08:16:47.022Z,1.90
2022-09-06T08:19:13.924Z,1.27
2022-09-06T08:21:40.680Z,1.57
2022-09-06T08:24:10.013Z,1.50
2022-09-06T08:26:40.440Z,1.60
2022-09-06T08:29:08.788Z,1.23
2022-09-06T08:31:37.951Z,1.40
2022-09-06T08:34:05.393Z,1.27
2022-09-06T08:36:32.615Z,1.00
2022-09-06T08:39:05.564Z,1.30
2022-09-06T08:41:52.542Z,1.33
2022-09-06T08:44:56.036Z,1.10
2022-09-06T08:47:24.059Z,1.00
2022-09-06T08:50:06.813Z,1.10
2022-09-06T08:53:16.214Z,1.00
2022-09-06T08:55:54.101Z,1.20
2022-09-06T08:58:39.606Z,1.10
2022-09-06T09:01:35.839Z,1.20
2022-09-06T09:04:06.481Z,1.17
2022-09-06T09:06:33.761Z,1.20
2022-09-06T09:09:10.463Z,1.50
2022-09-06T09:11:39.046Z,1.20
2022-09-06T09:14:31.109Z,1.60
2022-09-06T09:17:05.012Z,1.23
2022-09-06T09:19:36.549Z,1.17
2022-09-06T09:22:03.552Z,1.33
2022-09-06T09:24:32.228Z,1.33
2022-09-06T09:27:13.345Z,1.47
2022-09-06T09:32:53.133Z,1.37
2022-09-06T09:35:33.774Z,1.40
2022-09-06T09:38:12.412Z,1.20
2022-09-06T09:41:00.857Z,1.53
2022-09-06T09:43:33.185Z,1.53
2022-09-06T09:46:10.503Z,1.30
2022-09-06T09:48:38.200Z,1.17
2022-09-06T09:51:27.477Z,1.37
2022-09-06T09:53:57.873Z,1.10
2022-09-06T09:56:35.541Z,1.17
2022-09-06T09:59:07.254Z,1.30
2022-09-06T10:01:34.332Z,1.20
2022-09-06T10:09:37.310Z,1.30
2022-09-06T10:12:04.882Z,1.43
2022-09-06T10:14:39.662Z,1.10
2022-09-06T10:17:06.607Z,1.57
2022-09-06T10:19:38.015Z,1.07
2022-09-06T10:22:20.899Z,1.23
2022-09-06T10:25:05.790Z,1.60
2022-09-06T10:27:36.112Z,1.40
2022-09-06T10:30:10.498Z,1.23
2022-09-06T10:33:02.732Z,1.50
2022-09-06T10:35:36.845Z,1.57
2022-09-06T10:38:21.077Z,1.20
2022-09-06T10:41:20.165Z,1.17
2022-09-06T10:43:49.719Z,1.40
2022-09-06T10:46:20.064Z,1.70
2022-09-06T10:48:47.880Z,1.20
2022-09-06T10:51:36.290Z,1.23
2022-09-06T10:54:06.655Z,1.30
2022-09-06T10:56:58.237Z,1.30
2022-09-06T10:59:54.095Z,2.17
2022-09-06T11:02:45.586Z,1.53
2022-09-06T11:11:17.009Z,1.40
2022-09-06T11:13:43.800Z,1.70
2022-09-06T11:16:14.662Z,1.07
2022-09-06T11:18:55.298Z,1.40
2022-09-06T11:21:48.582Z,1.30
2022-09-06T11:24:16.929Z,1.43
2022-09-06T11:26:43.690Z,1.50
2022-09-06T11:29:19.486Z,1.33
2022-09-06T11:32:17.747Z,1.70
2022-09-06T11:34:57.740Z,1.27
2022-09-06T11:37:39.523Z,1.50
2022-09-06T11:42:51.546Z,1.53
2022-09-06T11:45:21.819Z,1.47
2022-09-06T11:47:51.635Z,4.00
2022-09-06T11:50:53.510Z,2.93
2022-09-06T11:53:22.448Z,1.90
2022-09-06T11:55:59.797Z,1.70
2022-09-06T11:58:42.411Z,1.93
2022-09-06T12:01:12.307Z,1.30
2022-09-06T12:06:41.174Z,1.90
2022-09-06T12:09:29.675Z,1.70
2022-09-06T12:11:56.973Z,2.20
2022-09-06T12:14:31.569Z,2.30
2022-09-06T12:17:01.915Z,2.30
2022-09-06T12:19:49.942Z,1.70
2022-09-06T12:22:29.322Z,1.90
2022-09-06T12:25:19.270Z,2.30
2022-09-06T12:28:04.965Z,1.60
2022-09-06T12:30:37.197Z,1.80
2022-09-06T12:33:13.662Z,1.90
2022-09-06T12:38:25.983Z,2.00
2022-09-06T12:40:58.119Z,1.90
2022-09-06T12:43:25.614Z,2.00
2022-09-06T12:45:53.042Z,1.90
2022-09-06T12:48:31.810Z,2.07
2022-09-06T12:51:19.368Z,2.07
2022-09-06T12:53:59.046Z,2.23
2022-09-06T12:56:28.341Z,2.27
2022-09-06T12:59:12.411Z,1.97
2022-09-06T13:01:39.677Z,2.17
2022-09-06T13:04:16.326Z,2.00
2022-09-06T13:06:45.863Z,1.83
2022-09-06T13:09:17.707Z,1.73
2022-09-06T13:11:50.883Z,1.90
2022-09-06T13:14:27.734Z,1.93
2022-09-06T13:16:58.442Z,2.10
2022-09-06T13:19:39.739Z,1.80
2022-09-06T13:22:11.030Z,1.93
2022-09-06T13:24:47.910Z,1.73
2022-09-06T13:27:35.780Z,2.07
2022-09-06T13:30:09.068Z,2.13
2022-09-06T13:32:45.418Z,1.77
2022-09-06T13:35:23.753Z,2.03
2022-09-06T13:37:50.877Z,1.90
2022-09-06T13:41:15.820Z,2.20
2022-09-06T13:43:45.997Z,1.93
2022-09-06T13:46:13.508Z,2.70
2022-09-06T13:48:41.522Z,2.30
2022-09-06T13:51:09.655Z,2.10
2022-09-06T13:53:36.854Z,1.90
2022-09-06T13:56:05.098Z,2.13
2022-09-06T13:58:31.920Z,1.90
2022-09-06T14:00:58.921Z,1.73
2022-09-06T14:03:31.511Z,2.40
2022-09-06T14:05:59.221Z,1.97
2022-09-06T14:08:38.486Z,1.60
2022-09-06T14:11:13.926Z,1.77
2022-09-06T14:13:40.699Z,1.83
2022-09-06T14:16:07.506Z,1.60
2022-09-06T14:18:34.270Z,1.80
2022-09-06T14:21:00.985Z,1.90
2022-09-06T14:23:27.938Z,1.70
2022-09-06T14:25:59.760Z,2.00
2022-09-06T14:28:27.142Z,1.47
2022-09-06T14:30:54.947Z,1.80
2022-09-06T14:33:21.860Z,1.70
2022-09-06T14:35:48.981Z,1.53
2022-09-06T14:38:16.035Z,1.80
2022-09-06T14:40:46.582Z,1.67
2022-09-06T14:43:13.391Z,1.70
2022-09-06T14:45:40.186Z,2.20
2022-09-06T14:48:07.142Z,1.67
2022-09-06T14:50:34.296Z,1.90
2022-09-06T14:53:01.040Z,1.60
2022-09-06T14:55:28.031Z,2.00
2022-09-06T14:57:55.200Z,2.27
2022-09-06T15:00:22.609Z,1.40
2022-09-06T15:02:49.656Z,2.00
2022-09-06T15:05:16.445Z,1.70
2022-09-06T15:07:43.255Z,2.20
2022-09-06T15:10:10.769Z,1.70
2022-09-06T15:12:38.070Z,1.73
2022-09-06T15:15:05.668Z,2.37
2022-09-06T15:17:34.149Z,1.83
2022-09-06T15:20:00.992Z,1.50
2022-09-06T15:22:27.681Z,1.70
2022-09-06T15:24:54.311Z,1.77
2022-09-06T15:27:21.087Z,1.60
2022-09-06T15:29:47.734Z,1.50
2022-09-06T15:32:14.359Z,2.10
2022-09-06T15:34:41.008Z,1.63
2022-09-06T15:37:07.645Z,1.83
2022-09-06T15:39:34.409Z,1.60
2022-09-06T15:42:01.063Z,2.07
2022-09-06T15:44:27.739Z,1.63
2022-09-06T15:46:59.335Z,1.87
2022-09-06T15:49:28.868Z,2.20
2022-09-06T15:51:57.255Z,1.60
2022-09-06T15:54:44.280Z,2.00
2022-09-06T15:57:11.467Z,2.00
2022-09-06T15:59:39.625Z,1.10
2022-09-06T16:02:07.127Z,1.30
2022-09-06T16:04:34.052Z,1.73
2022-09-06T16:07:00.911Z,1.60
2022-09-06T16:09:27.593Z,1.50
2022-09-06T16:11:54.282Z,1.60
2022-09-06T16:14:20.970Z,1.50
2022-09-06T16:16:47.824Z,1.53
2022-09-06T16:19:14.562Z,1.70
2022-09-06T16:21:42.748Z,1.50
2022-09-06T16:24:11.961Z,1.80
2022-09-06T16:26:44.239Z,1.57
2022-09-06T16:29:12.603Z,1.67
2022-09-06T16:31:40.752Z,1.47
2022-09-06T16:34:12.420Z,1.27
2022-09-06T16:36:39.340Z,1.60
2022-09-06T16:39:06.939Z,1.63
2022-09-06T16:41:41.069Z,1.60
2022-09-06T16:44:15.968Z,1.40
2022-09-06T16:46:44.135Z,1.40
2022-09-06T16:49:10.932Z,1.70
2022-09-06T16:51:37.764Z,1.40
2022-09-06T16:54:04.566Z,1.43
2022-09-06T16:56:34.622Z,1.40
2022-09-06T16:59:04.480Z,1.37
2022-09-06T17:01:32.326Z,1.20
2022-09-06T17:04:02.082Z,1.43
2022-09-06T17:06:29.265Z,1.57
2022-09-06T17:08:58.377Z,1.50
2022-09-06T17:11:26.064Z,1.57
2022-09-06T17:13:54.634Z,1.33
2022-09-06T17:16:40.682Z,2.20
2022-09-06T17:19:08.681Z,2.70
2022-09-06T17:21:36.232Z,2.50
2022-09-06T17:24:05.535Z,2.17
2022-09-06T17:26:34.279Z,2.03
2022-09-06T17:29:01.045Z,1.83
2022-09-06T17:31:28.119Z,1.50
2022-09-06T17:33:54.816Z,1.57
2022-09-06T17:36:24.178Z,1.60
2022-09-06T17:38:53.682Z,1.80
2022-09-06T17:41:24.199Z,2.93
2022-09-06T17:43:53.687Z,1.70
2022-09-06T17:46:25.230Z,1.43
2022-09-06T17:48:54.721Z,1.97
2022-09-06T17:51:21.381Z,1.70
2022-09-06T17:53:48.100Z,2.00
2022-09-06T17:56:16.685Z,2.03
2022-09-06T17:58:43.841Z,2.40
2022-09-06T18:01:13.696Z,2.07
2022-09-06T18:03:41.919Z,1.90
2022-09-06T18:06:11.065Z,2.07
2022-09-06T18:08:39.779Z,1.80
2022-09-06T18:11:13.862Z,2.00
2022-09-06T18:13:42.850Z,2.30
2022-09-06T18:16:10.613Z,1.70
2022-09-06T18:18:37.384Z,2.03
2022-09-06T18:21:08.128Z,1.80
2022-09-06T18:23:35.521Z,2.27
2022-09-06T18:26:05.364Z,1.87
2022-09-06T18:28:33.540Z,1.97
2022-09-06T18:31:04.228Z,1.70
2022-09-06T18:33:30.953Z,1.70
2022-09-06T18:35:57.590Z,2.30
2022-09-06T18:38:24.694Z,2.17
2022-09-06T18:40:59.352Z,1.70
2022-09-06T18:43:31.641Z,1.77
2022-09-06T18:46:03.606Z,2.20
2022-09-06T18:48:32.685Z,1.90
2022-09-06T18:51:13.036Z,1.77
2022-09-06T18:53:44.768Z,2.00
2022-09-06T18:56:13.275Z,2.17
2022-09-06T18:58:40.329Z,1.80
2022-09-06T19:01:09.851Z,1.93
2022-09-06T19:03:37.592Z,1.80
2022-09-06T19:06:13.089Z,1.83
2022-09-06T19:08:40.376Z,2.17
2022-09-06T19:11:13.879Z,1.50
2022-09-06T19:13:41.770Z,1.70
2022-09-06T19:16:10.519Z,1.57
2022-09-06T19:18:38.187Z,1.77
2022-09-06T19:21:10.981Z,1.70
2022-09-06T19:23:44.008Z,2.07
2022-09-06T19:26:19.408Z,1.80
2022-09-06T19:28:55.658Z,1.83
2022-09-06T19:31:24.141Z,2.03
2022-09-06T19:33:51.361Z,2.20
2022-09-06T19:36:19.549Z,1.70
2022-09-06T19:39:02.400Z,2.23
2022-09-06T19:41:30.935Z,1.57
2022-09-06T19:43:58.979Z,1.93
2022-09-06T19:46:27.448Z,1.97
2022-09-06T19:48:55.893Z,1.90
2022-09-06T19:51:23.108Z,2.23
2022-09-06T19:53:54.501Z,1.93
2022-09-06T19:56:23.887Z,1.97
2022-09-06T19:58:55.483Z,1.90
2022-09-06T20:01:23.565Z,2.20
2022-09-06T20:03:50.625Z,2.17
2022-09-06T20:06:17.329Z,2.20
2022-09-06T20:08:44.083Z,1.90
2022-09-06T20:11:12.689Z,1.93
2022-09-06T20:13:40.063Z,1.90
2022-09-06T20:16:08.416Z,2.30
2022-09-06T20:18:35.611Z,2.17
2022-09-06T20:21:02.937Z,1.83
2022-09-06T20:23:31.878Z,2.07
2022-09-06T20:26:09.603Z,2.07
2022-09-06T20:28:37.089Z,1.93
2022-09-06T20:31:09.895Z,1.57
2022-09-06T20:33:37.683Z,1.70
2022-09-06T20:36:07.182Z,2.20
2022-09-06T20:38:42.844Z,2.00
2022-09-06T20:41:15.570Z,2.20
2022-09-06T20:43:42.663Z,1.77
2022-09-06T20:46:14.986Z,1.73
2022-09-06T20:48:44.858Z,1.70
2022-09-06T20:51:15.542Z,1.47
2022-09-06T20:53:42.831Z,2.13
2022-09-06T20:56:12.438Z,1.70
2022-09-06T20:58:40.031Z,2.07
2022-09-06T21:01:09.417Z,1.83
2022-09-06T21:03:39.061Z,1.53
2022-09-06T21:06:10.668Z,1.97
2022-09-06T21:08:42.000Z,1.60
2022-09-06T21:11:10.072Z,1.60
2022-09-06T21:13:37.632Z,1.70
2022-09-06T21:16:05.111Z,1.90
2022-09-06T21:18:32.718Z,1.77
2022-09-06T21:21:01.880Z,2.03
2022-09-06T21:23:30.465Z,2.07
2022-09-06T21:26:02.598Z,2.13
2022-09-06T21:28:31.288Z,1.97
2022-09-06T21:31:13.260Z,2.10
2022-09-06T21:33:42.030Z,2.00
2022-09-06T21:36:14.940Z,2.07
2022-09-06T21:38:46.836Z,1.83
2022-09-06T21:41:15.281Z,2.13
2022-09-06T21:43:42.989Z,1.83
2022-09-06T21:46:20.269Z,2.13
2022-09-06T21:48:48.716Z,1.70
2022-09-06T21:51:20.792Z,1.83
2022-09-06T21:53:50.419Z,2.30
2022-09-06T21:56:23.684Z,1.90
2022-09-06T21:58:52.074Z,1.90
2022-09-06T22:01:19.179Z,1.57
2022-09-06T22:03:46.246Z,1.77
2022-09-06T22:06:19.128Z,1.47
2022-09-06T22:08:47.086Z,1.73
2022-09-06T22:11:16.820Z,2.07
2022-09-06T22:13:44.222Z,1.70
2022-09-06T22:16:12.580Z,1.50
2022-09-06T22:18:39.788Z,1.50
2022-09-06T22:21:11.962Z,1.30
2022-09-06T22:23:39.141Z,1.07
2022-09-06T22:26:10.953Z,1.67
2022-09-06T22:28:37.923Z,1.73
2022-09-06T22:31:05.818Z,1.13
2022-09-06T22:33:32.500Z,1.17
2022-09-06T22:36:00.162Z,0.97
2022-09-06T22:38:30.363Z,1.37
2022-09-06T22:40:57.451Z,1.50
2022-09-06T22:43:24.621Z,1.60
2022-09-06T22:45:52.197Z,1.43
2022-09-06T22:48:19.135Z,1.27
2022-09-06T22:50:46.309Z,1.40
2022-09-06T22:53:13.083Z,1.40
2022-09-06T22:55:39.744Z,2.10
2022-09-06T22:58:06.531Z,1.77
2022-09-06T23:00:35.885Z,1.30
2022-09-06T23:03:02.711Z,1.70
2022-09-06T23:05:30.883Z,1.70
2022-09-06T23:07:57.867Z,2.20
2022-09-06T23:10:24.486Z,2.17
2022-09-06T23:12:54.676Z,1.90
2022-09-06T23:15:22.062Z,1.70
2022-09-06T23:17:48.806Z,1.33
2022-09-06T23:20:15.571Z,1.93
2022-09-06T23:22:42.212Z,1.80
2022-09-06T23:25:09.361Z,1.90
2022-09-06T23:27:36.589Z,1.30
2022-09-06T23:30:03.732Z,1.60
2022-09-06T23:32:33.037Z,1.47
2022-09-06T23:34:59.668Z,2.00
2022-09-06T23:37:26.468Z,1.80
2022-09-06T23:39:53.139Z,1.60
2022-09-06T23:42:20.951Z,1.00
2022-09-06T23:44:47.753Z,0.80
2022-09-06T23:47:14.453Z,0.57
2022-09-06T23:49:41.176Z,0.70
2022-09-06T23:52:07.804Z,0.80
2022-09-06T23:54:34.461Z,0.80
2022-09-06T23:57:01.235Z,0.90
2022-09-06T23:59:27.967Z,1.23
